sensor_id;sensor_type;location;lat;lon;timestamp;P1;durP1;ratioP1;P2;durP2;ratioP2
10333;SDS011;5212;47.892;16.406;2023-10-09T00:02:24;2.63;;;1.23;;
10333;SDS011;5212;47.892;16.406;2023-10-09T00:04:50;1.90;;;1.17;;
10333;SDS011;5212;47.892;16.406;2023-10-09T00:07:16;1.40;;;1.00;;
10333;SDS011;5212;47.892;16.406;2023-10-09T00:09:44;1.43;;;1.07;;
10333;SDS011;5212;47.892;16.406;2023-10-09T00:12:14;3.90;;;1.10;;
10333;SDS011;5212;47.892;16.406;2023-10-09T00:14:41;1.57;;;0.93;;
10333;SDS011;5212;47.892;16.406;2023-10-09T00:17:12;2.47;;;1.30;;
10333;SDS011;5212;47.892;16.406;2023-10-09T00:19:43;2.10;;;1.27;;
10333;SDS011;5212;47.892;16.406;2023-10-09T00:22:12;2.00;;;1.40;;
10333;SDS011;5212;47.892;16.406;2023-10-09T00:24:51;2.70;;;1.30;;
10333;SDS011;5212;47.892;16.406;2023-10-09T00:27:35;2.03;;;1.30;;
10333;SDS011;5212;47.892;16.406;2023-10-09T00:30:02;1.57;;;1.30;;
10333;SDS011;5212;47.892;16.406;2023-10-09T00:32:31;1.40;;;1.20;;
10333;SDS011;5212;47.892;16.406;2023-10-09T00:34:59;2.57;;;1.20;;
10333;SDS011;5212;47.892;16.406;2023-10-09T00:37:45;1.70;;;1.30;;
10333;SDS011;5212;47.892;16.406;2023-10-09T00:40:12;1.67;;;1.07;;
10333;SDS011;5212;47.892;16.406;2023-10-09T00:42:45;2.57;;;1.30;;
10333;SDS011;5212;47.892;16.406;2023-10-09T00:45:12;4.17;;;1.10;;
10333;SDS011;5212;47.892;16.406;2023-10-09T00:47:49;1.97;;;1.30;;
10333;SDS011;5212;47.892;16.406;2023-10-09T00:50:16;1.83;;;1.20;;
10333;SDS011;5212;47.892;16.406;2023-10-09T00:52:47;1.73;;;1.13;;
10333;SDS011;5212;47.892;16.406;2023-10-09T00:55:17;1.33;;;1.07;;
10333;SDS011;5212;47.892;16.406;2023-10-09T00:57:51;2.00;;;1.13;;
10333;SDS011;5212;47.892;16.406;2023-10-09T01:00:17;1.87;;;1.10;;
10333;SDS011;5212;47.892;16.406;2023-10-09T01:02:57;1.87;;;1.17;;
10333;SDS011;5212;47.892;16.406;2023-10-09T01:05:37;1.97;;;1.10;;
10333;SDS011;5212;47.892;16.406;2023-10-09T01:08:09;3.43;;;1.40;;
10333;SDS011;5212;47.892;16.406;2023-10-09T01:10:46;3.37;;;1.40;;
10333;SDS011;5212;47.892;16.406;2023-10-09T01:13:16;2.07;;;1.23;;
10333;SDS011;5212;47.892;16.406;2023-10-09T01:15:43;1.73;;;1.10;;
10333;SDS011;5212;47.892;16.406;2023-10-09T01:18:10;2.20;;;1.37;;
10333;SDS011;5212;47.892;16.406;2023-10-09T01:20:38;1.57;;;1.00;;
10333;SDS011;5212;47.892;16.406;2023-10-09T01:23:09;2.13;;;1.33;;
10333;SDS011;5212;47.892;16.406;2023-10-09T01:25:35;1.93;;;1.30;;
10333;SDS011;5212;47.892;16.406;2023-10-09T01:28:10;2.73;;;1.20;;
10333;SDS011;5212;47.892;16.406;2023-10-09T01:30:40;0.97;;;0.87;;
10333;SDS011;5212;47.892;16.406;2023-10-09T01:33:07;1.73;;;1.20;;
10333;SDS011;5212;47.892;16.406;2023-10-09T01:35:47;1.30;;;1.00;;
10333;SDS011;5212;47.892;16.406;2023-10-09T01:38:16;1.53;;;1.30;;
10333;SDS011;5212;47.892;16.406;2023-10-09T01:40:42;2.30;;;1.37;;
10333;SDS011;5212;47.892;16.406;2023-10-09T01:43:10;1.73;;;1.30;;
10333;SDS011;5212;47.892;16.406;2023-10-09T01:45:36;1.87;;;1.43;;
10333;SDS011;5212;47.892;16.406;2023-10-09T01:48:07;2.57;;;1.60;;
10333;SDS011;5212;47.892;16.406;2023-10-09T01:50:34;3.70;;;1.87;;
10333;SDS011;5212;47.892;16.406;2023-10-09T01:53:02;4.57;;;1.60;;
10333;SDS011;5212;47.892;16.406;2023-10-09T01:55:31;1.83;;;1.30;;
10333;SDS011;5212;47.892;16.406;2023-10-09T01:58:01;1.83;;;1.40;;
10333;SDS011;5212;47.892;16.406;2023-10-09T02:00:31;1.23;;;1.10;;
10333;SDS011;5212;47.892;16.406;2023-10-09T02:03:00;2.73;;;1.40;;
10333;SDS011;5212;47.892;16.406;2023-10-09T02:05:30;2.20;;;1.83;;
10333;SDS011;5212;47.892;16.406;2023-10-09T02:07:59;2.47;;;1.37;;
10333;SDS011;5212;47.892;16.406;2023-10-09T02:10:29;3.80;;;1.47;;
10333;SDS011;5212;47.892;16.406;2023-10-09T02:12:58;2.83;;;1.57;;
10333;SDS011;5212;47.892;16.406;2023-10-09T02:15:25;3.03;;;1.70;;
10333;SDS011;5212;47.892;16.406;2023-10-09T02:18:11;2.27;;;1.67;;
10333;SDS011;5212;47.892;16.406;2023-10-09T02:20:52;2.53;;;1.50;;
10333;SDS011;5212;47.892;16.406;2023-10-09T02:23:26;2.13;;;1.43;;
10333;SDS011;5212;47.892;16.406;2023-10-09T02:26:03;1.90;;;1.47;;
10333;SDS011;5212;47.892;16.406;2023-10-09T02:28:32;4.63;;;1.83;;
10333;SDS011;5212;47.892;16.406;2023-10-09T02:30:58;1.83;;;1.40;;
10333;SDS011;5212;47.892;16.406;2023-10-09T02:33:28;1.60;;;1.40;;
10333;SDS011;5212;47.892;16.406;2023-10-09T02:35:55;3.57;;;1.40;;
10333;SDS011;5212;47.892;16.406;2023-10-09T02:38:24;2.33;;;1.50;;
10333;SDS011;5212;47.892;16.406;2023-10-09T02:40:51;2.40;;;1.47;;
10333;SDS011;5212;47.892;16.406;2023-10-09T02:43:35;2.93;;;1.70;;
10333;SDS011;5212;47.892;16.406;2023-10-09T02:46:09;2.67;;;1.40;;
10333;SDS011;5212;47.892;16.406;2023-10-09T02:48:39;1.93;;;1.43;;
10333;SDS011;5212;47.892;16.406;2023-10-09T02:51:10;2.77;;;1.50;;
10333;SDS011;5212;47.892;16.406;2023-10-09T02:53:46;3.83;;;1.60;;
10333;SDS011;5212;47.892;16.406;2023-10-09T02:56:15;2.20;;;1.40;;
10333;SDS011;5212;47.892;16.406;2023-10-09T02:58:43;3.63;;;1.70;;
10333;SDS011;5212;47.892;16.406;2023-10-09T03:01:10;3.03;;;1.57;;
10333;SDS011;5212;47.892;16.406;2023-10-09T03:03:36;1.70;;;1.27;;
10333;SDS011;5212;47.892;16.406;2023-10-09T03:06:03;2.20;;;1.47;;
10333;SDS011;5212;47.892;16.406;2023-10-09T03:08:35;2.60;;;1.50;;
10333;SDS011;5212;47.892;16.406;2023-10-09T03:11:02;4.50;;;1.40;;
10333;SDS011;5212;47.892;16.406;2023-10-09T03:13:31;3.57;;;1.50;;
10333;SDS011;5212;47.892;16.406;2023-10-09T03:15:58;2.77;;;1.37;;
10333;SDS011;5212;47.892;16.406;2023-10-09T03:18:27;2.20;;;1.40;;
10333;SDS011;5212;47.892;16.406;2023-10-09T03:20:53;2.43;;;1.50;;
10333;SDS011;5212;47.892;16.406;2023-10-09T03:23:21;3.20;;;2.07;;
10333;SDS011;5212;47.892;16.406;2023-10-09T03:25:47;3.23;;;1.80;;
10333;SDS011;5212;47.892;16.406;2023-10-09T03:28:16;2.50;;;1.40;;
10333;SDS011;5212;47.892;16.406;2023-10-09T03:30:42;4.03;;;1.77;;
10333;SDS011;5212;47.892;16.406;2023-10-09T03:33:13;2.40;;;1.40;;
10333;SDS011;5212;47.892;16.406;2023-10-09T03:35:40;1.97;;;1.47;;
10333;SDS011;5212;47.892;16.406;2023-10-09T03:38:05;2.20;;;1.50;;
10333;SDS011;5212;47.892;16.406;2023-10-09T03:40:37;5.50;;;1.40;;
10333;SDS011;5212;47.892;16.406;2023-10-09T03:43:04;2.27;;;1.70;;
10333;SDS011;5212;47.892;16.406;2023-10-09T03:45:31;3.60;;;1.97;;
10333;SDS011;5212;47.892;16.406;2023-10-09T03:48:00;2.37;;;1.43;;
10333;SDS011;5212;47.892;16.406;2023-10-09T03:50:30;2.93;;;1.50;;
10333;SDS011;5212;47.892;16.406;2023-10-09T03:53:01;2.57;;;1.60;;
10333;SDS011;5212;47.892;16.406;2023-10-09T03:55:32;2.03;;;1.40;;
10333;SDS011;5212;47.892;16.406;2023-10-09T03:57:59;2.07;;;1.37;;
10333;SDS011;5212;47.892;16.406;2023-10-09T04:00:27;2.30;;;1.40;;
10333;SDS011;5212;47.892;16.406;2023-10-09T04:02:54;3.90;;;1.50;;
10333;SDS011;5212;47.892;16.406;2023-10-09T04:05:22;2.33;;;1.60;;
10333;SDS011;5212;47.892;16.406;2023-10-09T04:07:48;3.43;;;1.47;;
10333;SDS011;5212;47.892;16.406;2023-10-09T04:10:16;3.13;;;1.67;;
10333;SDS011;5212;47.892;16.406;2023-10-09T04:12:58;2.37;;;1.50;;
10333;SDS011;5212;47.892;16.406;2023-10-09T04:15:25;2.30;;;1.47;;
10333;SDS011;5212;47.892;16.406;2023-10-09T04:17:55;1.97;;;1.27;;
10333;SDS011;5212;47.892;16.406;2023-10-09T04:20:22;1.87;;;1.33;;
10333;SDS011;5212;47.892;16.406;2023-10-09T04:23:06;2.53;;;1.50;;
10333;SDS011;5212;47.892;16.406;2023-10-09T04:25:32;6.13;;;1.57;;
10333;SDS011;5212;47.892;16.406;2023-10-09T04:28:09;6.03;;;1.40;;
10333;SDS011;5212;47.892;16.406;2023-10-09T04:30:43;4.03;;;1.50;;
10333;SDS011;5212;47.892;16.406;2023-10-09T04:33:11;2.13;;;1.20;;
10333;SDS011;5212;47.892;16.406;2023-10-09T04:35:53;1.80;;;1.50;;
10333;SDS011;5212;47.892;16.406;2023-10-09T04:38:34;1.77;;;1.07;;
10333;SDS011;5212;47.892;16.406;2023-10-09T04:41:04;3.33;;;1.70;;
10333;SDS011;5212;47.892;16.406;2023-10-09T04:43:31;2.40;;;1.40;;
10333;SDS011;5212;47.892;16.406;2023-10-09T04:45:58;2.00;;;1.30;;
10333;SDS011;5212;47.892;16.406;2023-10-09T04:48:37;3.63;;;1.50;;
10333;SDS011;5212;47.892;16.406;2023-10-09T04:51:03;2.03;;;1.20;;
10333;SDS011;5212;47.892;16.406;2023-10-09T04:53:48;2.60;;;1.30;;
10333;SDS011;5212;47.892;16.406;2023-10-09T04:56:25;2.60;;;1.33;;
10333;SDS011;5212;47.892;16.406;2023-10-09T04:58:56;2.63;;;1.27;;
10333;SDS011;5212;47.892;16.406;2023-10-09T05:01:28;2.43;;;1.53;;
10333;SDS011;5212;47.892;16.406;2023-10-09T05:04:02;2.47;;;1.40;;
10333;SDS011;5212;47.892;16.406;2023-10-09T05:06:29;1.67;;;1.10;;
10333;SDS011;5212;47.892;16.406;2023-10-09T05:09:09;5.53;;;1.50;;
10333;SDS011;5212;47.892;16.406;2023-10-09T05:11:38;3.40;;;1.60;;
10333;SDS011;5212;47.892;16.406;2023-10-09T05:14:21;2.47;;;1.10;;
10333;SDS011;5212;47.892;16.406;2023-10-09T05:16:52;2.10;;;1.33;;
10333;SDS011;5212;47.892;16.406;2023-10-09T05:19:26;1.73;;;1.10;;
10333;SDS011;5212;47.892;16.406;2023-10-09T05:22:07;1.87;;;1.10;;
10333;SDS011;5212;47.892;16.406;2023-10-09T05:24:42;2.13;;;1.23;;
10333;SDS011;5212;47.892;16.406;2023-10-09T05:27:10;1.87;;;1.17;;
10333;SDS011;5212;47.892;16.406;2023-10-09T05:30:07;1.90;;;1.00;;
10333;SDS011;5212;47.892;16.406;2023-10-09T05:32:52;3.23;;;1.20;;
10333;SDS011;5212;47.892;16.406;2023-10-09T05:35:23;1.80;;;1.30;;
10333;SDS011;5212;47.892;16.406;2023-10-09T05:38:06;1.93;;;1.40;;
10333;SDS011;5212;47.892;16.406;2023-10-09T05:40:49;1.90;;;1.10;;
10333;SDS011;5212;47.892;16.406;2023-10-09T05:43:19;1.80;;;1.30;;
10333;SDS011;5212;47.892;16.406;2023-10-09T05:46:01;1.50;;;1.10;;
10333;SDS011;5212;47.892;16.406;2023-10-09T05:48:40;1.40;;;1.10;;
10333;SDS011;5212;47.892;16.406;2023-10-09T05:51:25;2.07;;;1.00;;
10333;SDS011;5212;47.892;16.406;2023-10-09T05:54:18;3.70;;;1.50;;
10333;SDS011;5212;47.892;16.406;2023-10-09T05:57:06;1.90;;;1.20;;
10333;SDS011;5212;47.892;16.406;2023-10-09T05:59:49;1.33;;;0.93;;
10333;SDS011;5212;47.892;16.406;2023-10-09T06:02:33;1.60;;;1.03;;
10333;SDS011;5212;47.892;16.406;2023-10-09T06:05:29;1.50;;;1.20;;
10333;SDS011;5212;47.892;16.406;2023-10-09T06:08:07;1.90;;;1.30;;
10333;SDS011;5212;47.892;16.406;2023-10-09T06:10:38;2.23;;;1.40;;
10333;SDS011;5212;47.892;16.406;2023-10-09T06:13:07;1.93;;;1.40;;
10333;SDS011;5212;47.892;16.406;2023-10-09T06:15:54;1.80;;;1.47;;
10333;SDS011;5212;47.892;16.406;2023-10-09T06:18:44;1.63;;;1.30;;
10333;SDS011;5212;47.892;16.406;2023-10-09T06:21:19;4.13;;;1.17;;
10333;SDS011;5212;47.892;16.406;2023-10-09T06:24:00;2.53;;;1.37;;
10333;SDS011;5212;47.892;16.406;2023-10-09T06:26:40;2.47;;;1.63;;
10333;SDS011;5212;47.892;16.406;2023-10-09T06:29:16;3.17;;;1.40;;
10333;SDS011;5212;47.892;16.406;2023-10-09T06:31:59;3.60;;;1.37;;
10333;SDS011;5212;47.892;16.406;2023-10-09T06:34:41;2.40;;;1.20;;
10333;SDS011;5212;47.892;16.406;2023-10-09T06:37:10;3.67;;;1.30;;
10333;SDS011;5212;47.892;16.406;2023-10-09T06:39:59;2.73;;;1.40;;
10333;SDS011;5212;47.892;16.406;2023-10-09T06:42:44;2.23;;;1.50;;
10333;SDS011;5212;47.892;16.406;2023-10-09T06:45:17;2.07;;;1.17;;
10333;SDS011;5212;47.892;16.406;2023-10-09T06:47:46;1.57;;;1.30;;
10333;SDS011;5212;47.892;16.406;2023-10-09T06:50:20;2.17;;;1.20;;
10333;SDS011;5212;47.892;16.406;2023-10-09T06:52:49;1.93;;;1.20;;
10333;SDS011;5212;47.892;16.406;2023-10-09T06:55:39;1.53;;;1.00;;
10333;SDS011;5212;47.892;16.406;2023-10-09T06:58:13;1.73;;;1.30;;
10333;SDS011;5212;47.892;16.406;2023-10-09T07:00:42;1.80;;;1.10;;
10333;SDS011;5212;47.892;16.406;2023-10-09T07:03:26;2.23;;;1.47;;
10333;SDS011;5212;47.892;16.406;2023-10-09T07:06:02;2.73;;;1.10;;
10333;SDS011;5212;47.892;16.406;2023-10-09T07:08:34;1.77;;;1.17;;
10333;SDS011;5212;47.892;16.406;2023-10-09T07:11:03;1.63;;;1.13;;
10333;SDS011;5212;47.892;16.406;2023-10-09T07:13:43;2.73;;;1.27;;
10333;SDS011;5212;47.892;16.406;2023-10-09T07:16:20;1.47;;;1.17;;
10333;SDS011;5212;47.892;16.406;2023-10-09T07:18:49;2.47;;;1.17;;
10333;SDS011;5212;47.892;16.406;2023-10-09T07:21:20;2.07;;;1.20;;
10333;SDS011;5212;47.892;16.406;2023-10-09T07:23:53;2.33;;;1.10;;
10333;SDS011;5212;47.892;16.406;2023-10-09T07:26:24;1.43;;;1.17;;
10333;SDS011;5212;47.892;16.406;2023-10-09T07:29:02;1.80;;;1.30;;
10333;SDS011;5212;47.892;16.406;2023-10-09T07:31:42;3.77;;;1.57;;
10333;SDS011;5212;47.892;16.406;2023-10-09T07:34:10;1.70;;;1.10;;
10333;SDS011;5212;47.892;16.406;2023-10-09T07:36:55;2.80;;;1.13;;
10333;SDS011;5212;47.892;16.406;2023-10-09T07:39:22;2.50;;;1.50;;
10333;SDS011;5212;47.892;16.406;2023-10-09T07:41:48;4.17;;;1.50;;
10333;SDS011;5212;47.892;16.406;2023-10-09T07:44:40;2.00;;;1.37;;
10333;SDS011;5212;47.892;16.406;2023-10-09T07:47:12;3.03;;;1.40;;
10333;SDS011;5212;47.892;16.406;2023-10-09T07:49:56;2.27;;;1.47;;
10333;SDS011;5212;47.892;16.406;2023-10-09T07:52:24;1.60;;;1.10;;
10333;SDS011;5212;47.892;16.406;2023-10-09T07:54:51;1.97;;;1.20;;
10333;SDS011;5212;47.892;16.406;2023-10-09T07:57:26;2.50;;;1.40;;
10333;SDS011;5212;47.892;16.406;2023-10-09T07:59:54;2.60;;;1.40;;
10333;SDS011;5212;47.892;16.406;2023-10-09T08:02:20;1.57;;;1.13;;
10333;SDS011;5212;47.892;16.406;2023-10-09T08:04:56;1.73;;;1.30;;
10333;SDS011;5212;47.892;16.406;2023-10-09T08:07:28;2.13;;;1.23;;
10333;SDS011;5212;47.892;16.406;2023-10-09T08:09:59;1.67;;;1.00;;
10333;SDS011;5212;47.892;16.406;2023-10-09T08:12:40;2.90;;;1.50;;
10333;SDS011;5212;47.892;16.406;2023-10-09T08:15:20;2.23;;;1.43;;
10333;SDS011;5212;47.892;16.406;2023-10-09T08:17:47;1.47;;;1.10;;
10333;SDS011;5212;47.892;16.406;2023-10-09T08:20:16;1.77;;;1.30;;
10333;SDS011;5212;47.892;16.406;2023-10-09T08:22:42;3.50;;;1.40;;
10333;SDS011;5212;47.892;16.406;2023-10-09T08:25:09;1.43;;;1.00;;
10333;SDS011;5212;47.892;16.406;2023-10-09T08:27:51;2.80;;;1.20;;
10333;SDS011;5212;47.892;16.406;2023-10-09T08:30:21;1.57;;;1.07;;
10333;SDS011;5212;47.892;16.406;2023-10-09T08:33:09;2.60;;;1.10;;
10333;SDS011;5212;47.892;16.406;2023-10-09T08:36:06;2.70;;;1.20;;
10333;SDS011;5212;47.892;16.406;2023-10-09T08:38:35;3.30;;;1.33;;
10333;SDS011;5212;47.892;16.406;2023-10-09T08:41:08;1.10;;;1.00;;
10333;SDS011;5212;47.892;16.406;2023-10-09T08:43:47;1.50;;;1.13;;
10333;SDS011;5212;47.892;16.406;2023-10-09T08:46:16;1.77;;;1.13;;
10333;SDS011;5212;47.892;16.406;2023-10-09T08:48:46;1.60;;;1.10;;
10333;SDS011;5212;47.892;16.406;2023-10-09T08:51:13;1.57;;;1.20;;
10333;SDS011;5212;47.892;16.406;2023-10-09T08:53:39;2.53;;;1.40;;
10333;SDS011;5212;47.892;16.406;2023-10-09T08:56:08;4.50;;;1.40;;
10333;SDS011;5212;47.892;16.406;2023-10-09T08:58:35;2.20;;;1.43;;
10333;SDS011;5212;47.892;16.406;2023-10-09T09:01:03;2.27;;;1.30;;
10333;SDS011;5212;47.892;16.406;2023-10-09T09:03:37;1.97;;;1.40;;
10333;SDS011;5212;47.892;16.406;2023-10-09T09:06:04;3.00;;;1.73;;
10333;SDS011;5212;47.892;16.406;2023-10-09T09:08:30;3.50;;;1.80;;
10333;SDS011;5212;47.892;16.406;2023-10-09T09:10:57;3.97;;;1.77;;
10333;SDS011;5212;47.892;16.406;2023-10-09T09:13:36;3.20;;;1.40;;
10333;SDS011;5212;47.892;16.406;2023-10-09T09:16:13;1.90;;;1.30;;
10333;SDS011;5212;47.892;16.406;2023-10-09T09:18:51;3.10;;;1.40;;
10333;SDS011;5212;47.892;16.406;2023-10-09T09:21:26;2.00;;;1.40;;
10333;SDS011;5212;47.892;16.406;2023-10-09T09:23:53;4.43;;;1.70;;
10333;SDS011;5212;47.892;16.406;2023-10-09T09:26:32;3.30;;;1.40;;
10333;SDS011;5212;47.892;16.406;2023-10-09T09:29:02;1.73;;;1.20;;
10333;SDS011;5212;47.892;16.406;2023-10-09T09:31:32;1.70;;;1.20;;
10333;SDS011;5212;47.892;16.406;2023-10-09T09:34:03;1.53;;;1.00;;
10333;SDS011;5212;47.892;16.406;2023-10-09T09:36:38;2.07;;;1.30;;
10333;SDS011;5212;47.892;16.406;2023-10-09T09:39:18;3.50;;;1.60;;
10333;SDS011;5212;47.892;16.406;2023-10-09T09:41:54;3.73;;;1.10;;
10333;SDS011;5212;47.892;16.406;2023-10-09T09:44:22;3.00;;;1.10;;
10333;SDS011;5212;47.892;16.406;2023-10-09T09:46:52;2.57;;;1.27;;
10333;SDS011;5212;47.892;16.406;2023-10-09T09:49:20;2.23;;;1.23;;
10333;SDS011;5212;47.892;16.406;2023-10-09T09:51:47;2.43;;;1.20;;
10333;SDS011;5212;47.892;16.406;2023-10-09T09:54:13;3.47;;;1.30;;
10333;SDS011;5212;47.892;16.406;2023-10-09T09:56:41;2.90;;;1.50;;
10333;SDS011;5212;47.892;16.406;2023-10-09T09:59:08;1.73;;;1.17;;
10333;SDS011;5212;47.892;16.406;2023-10-09T10:01:39;1.93;;;1.40;;
10333;SDS011;5212;47.892;16.406;2023-10-09T10:04:05;2.13;;;1.40;;
10333;SDS011;5212;47.892;16.406;2023-10-09T10:06:37;2.17;;;1.37;;
10333;SDS011;5212;47.892;16.406;2023-10-09T10:09:06;2.53;;;1.63;;
10333;SDS011;5212;47.892;16.406;2023-10-09T10:11:41;3.03;;;1.30;;
10333;SDS011;5212;47.892;16.406;2023-10-09T10:14:09;3.07;;;1.40;;
10333;SDS011;5212;47.892;16.406;2023-10-09T10:17:05;2.17;;;1.60;;
10333;SDS011;5212;47.892;16.406;2023-10-09T10:22:25;4.33;;;1.57;;
10333;SDS011;5212;47.892;16.406;2023-10-09T10:24:53;2.27;;;1.30;;
10333;SDS011;5212;47.892;16.406;2023-10-09T10:27:20;3.50;;;1.50;;
10333;SDS011;5212;47.892;16.406;2023-10-09T10:32:58;4.10;;;1.80;;
10333;SDS011;5212;47.892;16.406;2023-10-09T10:35:34;2.67;;;1.33;;
10333;SDS011;5212;47.892;16.406;2023-10-09T10:38:22;3.53;;;1.67;;
10333;SDS011;5212;47.892;16.406;2023-10-09T10:40:50;5.07;;;2.10;;
10333;SDS011;5212;47.892;16.406;2023-10-09T10:43:23;7.83;;;1.90;;
10333;SDS011;5212;47.892;16.406;2023-10-09T10:46:00;6.33;;;1.70;;
10333;SDS011;5212;47.892;16.406;2023-10-09T10:48:27;5.33;;;2.10;;
10333;SDS011;5212;47.892;16.406;2023-10-09T10:51:03;6.03;;;2.10;;
10333;SDS011;5212;47.892;16.406;2023-10-09T10:53:29;4.10;;;1.87;;
10333;SDS011;5212;47.892;16.406;2023-10-09T10:56:01;13.70;;;2.10;;
10333;SDS011;5212;47.892;16.406;2023-10-09T10:58:43;7.47;;;2.07;;
10333;SDS011;5212;47.892;16.406;2023-10-09T11:01:36;5.80;;;2.10;;
10333;SDS011;5212;47.892;16.406;2023-10-09T11:04:18;7.73;;;2.27;;
10333;SDS011;5212;47.892;16.406;2023-10-09T11:06:50;5.63;;;2.00;;
10333;SDS011;5212;47.892;16.406;2023-10-09T11:09:17;7.57;;;2.20;;
10333;SDS011;5212;47.892;16.406;2023-10-09T11:11:48;5.43;;;2.23;;
10333;SDS011;5212;47.892;16.406;2023-10-09T11:14:14;6.07;;;2.10;;
10333;SDS011;5212;47.892;16.406;2023-10-09T11:16:41;7.17;;;2.10;;
10333;SDS011;5212;47.892;16.406;2023-10-09T11:19:07;4.93;;;1.90;;
10333;SDS011;5212;47.892;16.406;2023-10-09T11:21:48;6.50;;;1.93;;
10333;SDS011;5212;47.892;16.406;2023-10-09T11:24:23;8.87;;;2.00;;
10333;SDS011;5212;47.892;16.406;2023-10-09T11:26:50;5.27;;;2.17;;
10333;SDS011;5212;47.892;16.406;2023-10-09T11:29:20;8.23;;;2.27;;
10333;SDS011;5212;47.892;16.406;2023-10-09T11:32:14;6.83;;;2.03;;
10333;SDS011;5212;47.892;16.406;2023-10-09T11:34:43;6.10;;;1.97;;
10333;SDS011;5212;47.892;16.406;2023-10-09T11:37:17;6.13;;;2.30;;
10333;SDS011;5212;47.892;16.406;2023-10-09T11:39:56;3.20;;;1.80;;
10333;SDS011;5212;47.892;16.406;2023-10-09T11:42:24;7.10;;;1.90;;
10333;SDS011;5212;47.892;16.406;2023-10-09T11:45:01;5.20;;;1.70;;
10333;SDS011;5212;47.892;16.406;2023-10-09T11:47:44;5.63;;;2.10;;
10333;SDS011;5212;47.892;16.406;2023-10-09T11:50:19;3.43;;;2.20;;
10333;SDS011;5212;47.892;16.406;2023-10-09T11:52:57;7.77;;;2.00;;
10333;SDS011;5212;47.892;16.406;2023-10-09T11:55:37;7.63;;;1.90;;
10333;SDS011;5212;47.892;16.406;2023-10-09T11:58:04;3.17;;;2.20;;
10333;SDS011;5212;47.892;16.406;2023-10-09T12:00:31;4.73;;;1.87;;
10333;SDS011;5212;47.892;16.406;2023-10-09T12:03:09;4.67;;;1.90;;
10333;SDS011;5212;47.892;16.406;2023-10-09T12:05:36;5.97;;;1.87;;
10333;SDS011;5212;47.892;16.406;2023-10-09T12:08:02;8.23;;;2.17;;
10333;SDS011;5212;47.892;16.406;2023-10-09T12:10:33;4.20;;;2.33;;
10333;SDS011;5212;47.892;16.406;2023-10-09T12:12:59;5.97;;;2.40;;
10333;SDS011;5212;47.892;16.406;2023-10-09T12:15:30;5.00;;;1.90;;
10333;SDS011;5212;47.892;16.406;2023-10-09T12:18:02;8.53;;;2.10;;
10333;SDS011;5212;47.892;16.406;2023-10-09T12:20:29;5.47;;;2.13;;
10333;SDS011;5212;47.892;16.406;2023-10-09T12:22:58;5.53;;;2.10;;
10333;SDS011;5212;47.892;16.406;2023-10-09T12:25:25;4.57;;;2.00;;
10333;SDS011;5212;47.892;16.406;2023-10-09T12:27:51;6.67;;;2.40;;
10333;SDS011;5212;47.892;16.406;2023-10-09T12:30:20;5.63;;;1.97;;
10333;SDS011;5212;47.892;16.406;2023-10-09T12:32:52;5.43;;;2.30;;
10333;SDS011;5212;47.892;16.406;2023-10-09T12:35:19;9.07;;;2.47;;
10333;SDS011;5212;47.892;16.406;2023-10-09T12:37:45;5.27;;;2.00;;
10333;SDS011;5212;47.892;16.406;2023-10-09T12:40:12;5.03;;;2.10;;
10333;SDS011;5212;47.892;16.406;2023-10-09T12:42:39;5.77;;;2.17;;
10333;SDS011;5212;47.892;16.406;2023-10-09T12:45:05;8.13;;;2.27;;
10333;SDS011;5212;47.892;16.406;2023-10-09T12:47:34;4.73;;;2.20;;
10333;SDS011;5212;47.892;16.406;2023-10-09T12:50:04;5.57;;;1.90;;
10333;SDS011;5212;47.892;16.406;2023-10-09T12:52:35;4.93;;;2.30;;
10333;SDS011;5212;47.892;16.406;2023-10-09T12:55:02;5.17;;;2.43;;
10333;SDS011;5212;47.892;16.406;2023-10-09T12:57:32;5.97;;;2.13;;
10333;SDS011;5212;47.892;16.406;2023-10-09T12:59:59;6.10;;;2.40;;
10333;SDS011;5212;47.892;16.406;2023-10-09T13:02:25;9.10;;;2.23;;
10333;SDS011;5212;47.892;16.406;2023-10-09T13:04:54;7.07;;;2.80;;
10333;SDS011;5212;47.892;16.406;2023-10-09T13:07:21;5.73;;;2.47;;
10333;SDS011;5212;47.892;16.406;2023-10-09T13:09:47;7.90;;;2.80;;
10333;SDS011;5212;47.892;16.406;2023-10-09T13:12:33;4.00;;;2.20;;
10333;SDS011;5212;47.892;16.406;2023-10-09T13:15:03;6.83;;;2.50;;
10333;SDS011;5212;47.892;16.406;2023-10-09T13:17:34;7.63;;;2.60;;
10333;SDS011;5212;47.892;16.406;2023-10-09T13:20:01;5.70;;;2.53;;
10333;SDS011;5212;47.892;16.406;2023-10-09T13:22:29;4.53;;;2.47;;
10333;SDS011;5212;47.892;16.406;2023-10-09T13:24:56;6.67;;;2.73;;
10333;SDS011;5212;47.892;16.406;2023-10-09T13:27:28;7.73;;;2.80;;
10333;SDS011;5212;47.892;16.406;2023-10-09T13:29:59;7.00;;;3.00;;
10333;SDS011;5212;47.892;16.406;2023-10-09T13:32:33;10.70;;;2.77;;
10333;SDS011;5212;47.892;16.406;2023-10-09T13:35:00;7.23;;;2.53;;
10333;SDS011;5212;47.892;16.406;2023-10-09T13:37:29;6.50;;;2.57;;
10333;SDS011;5212;47.892;16.406;2023-10-09T13:39:57;8.13;;;2.40;;
10333;SDS011;5212;47.892;16.406;2023-10-09T13:42:24;7.40;;;2.30;;
10333;SDS011;5212;47.892;16.406;2023-10-09T13:44:51;4.60;;;2.50;;
10333;SDS011;5212;47.892;16.406;2023-10-09T13:47:19;8.30;;;2.73;;
10333;SDS011;5212;47.892;16.406;2023-10-09T13:49:46;5.57;;;2.50;;
10333;SDS011;5212;47.892;16.406;2023-10-09T13:52:15;6.03;;;2.77;;
10333;SDS011;5212;47.892;16.406;2023-10-09T13:54:44;5.17;;;2.87;;
10333;SDS011;5212;47.892;16.406;2023-10-09T13:57:13;10.40;;;2.40;;
10333;SDS011;5212;47.892;16.406;2023-10-09T13:59:40;7.60;;;3.03;;
10333;SDS011;5212;47.892;16.406;2023-10-09T14:02:09;7.93;;;2.70;;
10333;SDS011;5212;47.892;16.406;2023-10-09T14:04:41;6.20;;;2.77;;
10333;SDS011;5212;47.892;16.406;2023-10-09T14:07:07;7.07;;;3.00;;
10333;SDS011;5212;47.892;16.406;2023-10-09T14:09:34;4.73;;;2.90;;
10333;SDS011;5212;47.892;16.406;2023-10-09T14:12:04;5.17;;;2.93;;
10333;SDS011;5212;47.892;16.406;2023-10-09T14:14:33;10.37;;;2.97;;
10333;SDS011;5212;47.892;16.406;2023-10-09T14:17:03;7.77;;;2.63;;
10333;SDS011;5212;47.892;16.406;2023-10-09T14:19:36;8.30;;;3.07;;
10333;SDS011;5212;47.892;16.406;2023-10-09T14:22:03;6.23;;;2.73;;
10333;SDS011;5212;47.892;16.406;2023-10-09T14:24:30;11.53;;;3.20;;
10333;SDS011;5212;47.892;16.406;2023-10-09T14:26:58;5.30;;;2.87;;
10333;SDS011;5212;47.892;16.406;2023-10-09T14:29:25;10.50;;;3.00;;
10333;SDS011;5212;47.892;16.406;2023-10-09T14:31:51;7.10;;;2.77;;
10333;SDS011;5212;47.892;16.406;2023-10-09T14:34:25;5.17;;;2.83;;
10333;SDS011;5212;47.892;16.406;2023-10-09T14:36:54;6.80;;;2.80;;
10333;SDS011;5212;47.892;16.406;2023-10-09T14:39:20;6.90;;;4.00;;
10333;SDS011;5212;47.892;16.406;2023-10-09T14:41:51;9.33;;;3.17;;
10333;SDS011;5212;47.892;16.406;2023-10-09T14:44:19;7.10;;;3.00;;
10333;SDS011;5212;47.892;16.406;2023-10-09T14:46:46;7.83;;;3.13;;
10333;SDS011;5212;47.892;16.406;2023-10-09T14:49:14;7.87;;;3.03;;
10333;SDS011;5212;47.892;16.406;2023-10-09T14:51:40;10.50;;;2.63;;
10333;SDS011;5212;47.892;16.406;2023-10-09T14:54:09;7.63;;;2.80;;
10333;SDS011;5212;47.892;16.406;2023-10-09T14:56:40;8.13;;;3.03;;
10333;SDS011;5212;47.892;16.406;2023-10-09T14:59:06;5.60;;;2.77;;
10333;SDS011;5212;47.892;16.406;2023-10-09T15:01:33;6.93;;;3.03;;
10333;SDS011;5212;47.892;16.406;2023-10-09T15:03:59;7.57;;;3.00;;
10333;SDS011;5212;47.892;16.406;2023-10-09T15:06:26;11.30;;;7.40;;
10333;SDS011;5212;47.892;16.406;2023-10-09T15:08:55;10.70;;;5.20;;
10333;SDS011;5212;47.892;16.406;2023-10-09T15:11:21;12.77;;;8.37;;
10333;SDS011;5212;47.892;16.406;2023-10-09T15:13:49;7.83;;;3.20;;
10333;SDS011;5212;47.892;16.406;2023-10-09T15:16:17;8.33;;;3.70;;
10333;SDS011;5212;47.892;16.406;2023-10-09T15:18:43;13.50;;;7.33;;
10333;SDS011;5212;47.892;16.406;2023-10-09T15:21:09;13.30;;;6.73;;
10333;SDS011;5212;47.892;16.406;2023-10-09T15:23:36;9.60;;;4.30;;